sensor_id;sensor_type;location;lat;lon;timestamp;temperature;humidity
66140;DHT22;52945;51.908;8.364;2023-03-01T00:01:23;3.40;53.10
66140;DHT22;52945;51.908;8.364;2023-03-01T00:04:24;3.50;53.70
66140;DHT22;52945;51.908;8.364;2023-03-01T00:07:25;3.40;53.60
66140;DHT22;52945;51.908;8.364;2023-03-01T00:10:26;3.40;53.70
66140;DHT22;52945;51.908;8.364;2023-03-01T00:13:26;3.40;53.70
66140;DHT22;52945;51.908;8.364;2023-03-01T00:16:29;3.40;53.80
66140;DHT22;52945;51.908;8.364;2023-03-01T00:19:30;3.30;53.90
66140;DHT22;52945;51.908;8.364;2023-03-01T00:22:32;3.20;53.90
66140;DHT22;52945;51.908;8.364;2023-03-01T00:25:33;3.20;54.00
66140;DHT22;52945;51.908;8.364;2023-03-01T00:28:34;3.20;53.90
66140;DHT22;52945;51.908;8.364;2023-03-01T00:31:35;3.10;53.90
66140;DHT22;52945;51.908;8.364;2023-03-01T00:34:35;3.20;53.90
66140;DHT22;52945;51.908;8.364;2023-03-01T00:37:36;3.10;54.00
66140;DHT22;52945;51.908;8.364;2023-03-01T00:40:36;3.10;54.10
66140;DHT22;52945;51.908;8.364;2023-03-01T00:43:37;3.10;54.20
66140;DHT22;52945;51.908;8.364;2023-03-01T00:46:38;3.10;54.20
66140;DHT22;52945;51.908;8.364;2023-03-01T00:49:39;3.10;54.40
66140;DHT22;52945;51.908;8.364;2023-03-01T00:52:39;3.00;54.50
66140;DHT22;52945;51.908;8.364;2023-03-01T00:55:40;3.00;54.40
66140;DHT22;52945;51.908;8.364;2023-03-01T00:58:41;3.00;54.50
66140;DHT22;52945;51.908;8.364;2023-03-01T01:01:42;3.00;54.50
66140;DHT22;52945;51.908;8.364;2023-03-01T01:04:42;3.00;54.70
66140;DHT22;52945;51.908;8.364;2023-03-01T01:07:43;2.90;54.80
66140;DHT22;52945;51.908;8.364;2023-03-01T01:10:45;2.90;54.80
66140;DHT22;52945;51.908;8.364;2023-03-01T01:13:47;2.80;55.00
66140;DHT22;52945;51.908;8.364;2023-03-01T01:16:47;2.90;54.70
66140;DHT22;52945;51.908;8.364;2023-03-01T01:19:48;2.80;55.00
66140;DHT22;52945;51.908;8.364;2023-03-01T01:22:49;2.80;54.90
66140;DHT22;52945;51.908;8.364;2023-03-01T01:25:49;2.70;55.10
66140;DHT22;52945;51.908;8.364;2023-03-01T01:28:50;2.70;55.00
66140;DHT22;52945;51.908;8.364;2023-03-01T01:31:51;2.70;54.90
66140;DHT22;52945;51.908;8.364;2023-03-01T01:34:52;2.70;55.20
66140;DHT22;52945;51.908;8.364;2023-03-01T01:37:52;2.70;55.00
66140;DHT22;52945;51.908;8.364;2023-03-01T01:40:53;2.70;55.10
66140;DHT22;52945;51.908;8.364;2023-03-01T01:44:14;2.70;55.10
66140;DHT22;52945;51.908;8.364;2023-03-01T01:47:18;2.60;55.20
66140;DHT22;52945;51.908;8.364;2023-03-01T01:50:20;2.60;55.40
66140;DHT22;52945;51.908;8.364;2023-03-01T01:53:21;2.60;55.30
66140;DHT22;52945;51.908;8.364;2023-03-01T01:56:24;2.50;55.30
66140;DHT22;52945;51.908;8.364;2023-03-01T01:59:28;2.50;55.40
66140;DHT22;52945;51.908;8.364;2023-03-01T02:02:31;2.50;55.30
66140;DHT22;52945;51.908;8.364;2023-03-01T02:05:46;2.50;55.50
66140;DHT22;52945;51.908;8.364;2023-03-01T02:08:49;2.50;55.60
66140;DHT22;52945;51.908;8.364;2023-03-01T02:11:52;2.50;55.70
66140;DHT22;52945;51.908;8.364;2023-03-01T02:14:53;2.40;55.80
66140;DHT22;52945;51.908;8.364;2023-03-01T02:17:54;2.40;55.60
66140;DHT22;52945;51.908;8.364;2023-03-01T02:24:34;2.40;55.80
66140;DHT22;52945;51.908;8.364;2023-03-01T02:30:49;2.30;55.80
66140;DHT22;52945;51.908;8.364;2023-03-01T02:34:12;2.30;55.90
66140;DHT22;52945;51.908;8.364;2023-03-01T02:37:15;2.30;55.90
66140;DHT22;52945;51.908;8.364;2023-03-01T02:40:20;2.20;55.90
66140;DHT22;52945;51.908;8.364;2023-03-01T02:43:25;2.20;56.00
66140;DHT22;52945;51.908;8.364;2023-03-01T02:46:27;2.10;56.00
66140;DHT22;52945;51.908;8.364;2023-03-01T02:49:30;2.10;56.10
66140;DHT22;52945;51.908;8.364;2023-03-01T02:52:47;2.20;56.20
66140;DHT22;52945;51.908;8.364;2023-03-01T02:55:51;2.20;56.30
66140;DHT22;52945;51.908;8.364;2023-03-01T02:58:52;2.10;56.40
66140;DHT22;52945;51.908;8.364;2023-03-01T03:01:53;2.10;56.40
66140;DHT22;52945;51.908;8.364;2023-03-01T03:04:53;2.10;56.50
66140;DHT22;52945;51.908;8.364;2023-03-01T03:07:54;2.10;56.40
66140;DHT22;52945;51.908;8.364;2023-03-01T03:10:55;2.10;56.70
66140;DHT22;52945;51.908;8.364;2023-03-01T03:13:56;2.00;56.70
66140;DHT22;52945;51.908;8.364;2023-03-01T03:16:58;2.10;56.80
66140;DHT22;52945;51.908;8.364;2023-03-01T03:19:58;2.00;56.70
66140;DHT22;52945;51.908;8.364;2023-03-01T03:22:59;2.00;56.80
66140;DHT22;52945;51.908;8.364;2023-03-01T03:25:59;2.00;57.10
66140;DHT22;52945;51.908;8.364;2023-03-01T03:29:00;2.00;57.00
66140;DHT22;52945;51.908;8.364;2023-03-01T03:32:01;2.00;56.80
66140;DHT22;52945;51.908;8.364;2023-03-01T03:35:06;1.90;56.90
66140;DHT22;52945;51.908;8.364;2023-03-01T03:38:11;2.00;56.80
66140;DHT22;52945;51.908;8.364;2023-03-01T03:41:18;1.90;57.00
66140;DHT22;52945;51.908;8.364;2023-03-01T03:44:19;1.90;57.00
66140;DHT22;52945;51.908;8.364;2023-03-01T03:47:20;1.90;57.40
66140;DHT22;52945;51.908;8.364;2023-03-01T03:50:21;1.90;57.40
66140;DHT22;52945;51.908;8.364;2023-03-01T03:53:23;1.80;57.30
66140;DHT22;52945;51.908;8.364;2023-03-01T03:56:24;1.80;57.30
66140;DHT22;52945;51.908;8.364;2023-03-01T03:59:26;1.80;57.50
66140;DHT22;52945;51.908;8.364;2023-03-01T04:02:26;1.70;57.30
66140;DHT22;52945;51.908;8.364;2023-03-01T04:05:27;1.80;57.60
66140;DHT22;52945;51.908;8.364;2023-03-01T04:08:28;1.80;57.60
66140;DHT22;52945;51.908;8.364;2023-03-01T04:11:29;1.70;57.50
66140;DHT22;52945;51.908;8.364;2023-03-01T04:14:30;1.70;57.60
66140;DHT22;52945;51.908;8.364;2023-03-01T04:17:30;1.70;57.50
66140;DHT22;52945;51.908;8.364;2023-03-01T04:20:34;1.70;57.50
66140;DHT22;52945;51.908;8.364;2023-03-01T04:23:35;1.70;57.50
66140;DHT22;52945;51.908;8.364;2023-03-01T04:26:36;1.60;57.50
66140;DHT22;52945;51.908;8.364;2023-03-01T04:29:36;1.70;57.50
66140;DHT22;52945;51.908;8.364;2023-03-01T04:32:37;1.60;57.50
66140;DHT22;52945;51.908;8.364;2023-03-01T04:35:38;1.60;57.60
66140;DHT22;52945;51.908;8.364;2023-03-01T04:38:39;1.60;57.60
66140;DHT22;52945;51.908;8.364;2023-03-01T04:41:40;1.60;57.80
66140;DHT22;52945;51.908;8.364;2023-03-01T04:44:43;1.60;57.90
66140;DHT22;52945;51.908;8.364;2023-03-01T04:47:45;1.60;58.30
66140;DHT22;52945;51.908;8.364;2023-03-01T04:50:46;1.60;58.20
66140;DHT22;52945;51.908;8.364;2023-03-01T04:53:47;1.60;58.30
66140;DHT22;52945;51.908;8.364;2023-03-01T04:56:47;1.50;58.30
66140;DHT22;52945;51.908;8.364;2023-03-01T04:59:48;1.60;58.50
66140;DHT22;52945;51.908;8.364;2023-03-01T05:02:55;1.60;58.30
66140;DHT22;52945;51.908;8.364;2023-03-01T05:05:58;1.50;58.30
66140;DHT22;52945;51.908;8.364;2023-03-01T05:09:00;1.60;58.30
66140;DHT22;52945;51.908;8.364;2023-03-01T05:12:00;1.50;58.60
66140;DHT22;52945;51.908;8.364;2023-03-01T05:15:01;1.60;58.80
66140;DHT22;52945;51.908;8.364;2023-03-01T05:18:07;1.50;58.70
66140;DHT22;52945;51.908;8.364;2023-03-01T05:21:13;1.50;58.60
66140;DHT22;52945;51.908;8.364;2023-03-01T05:24:16;1.50;58.50
66140;DHT22;52945;51.908;8.364;2023-03-01T05:27:17;1.50;58.70
66140;DHT22;52945;51.908;8.364;2023-03-01T05:30:17;1.50;58.60
66140;DHT22;52945;51.908;8.364;2023-03-01T05:33:18;1.50;58.70
66140;DHT22;52945;51.908;8.364;2023-03-01T05:36:19;1.50;58.70
66140;DHT22;52945;51.908;8.364;2023-03-01T05:39:21;1.40;58.70
66140;DHT22;52945;51.908;8.364;2023-03-01T05:42:22;1.40;58.70
66140;DHT22;52945;51.908;8.364;2023-03-01T05:45:24;1.50;58.80
66140;DHT22;52945;51.908;8.364;2023-03-01T05:48:25;1.40;58.70
66140;DHT22;52945;51.908;8.364;2023-03-01T05:51:26;1.40;58.70
66140;DHT22;52945;51.908;8.364;2023-03-01T05:54:26;1.40;58.70
66140;DHT22;52945;51.908;8.364;2023-03-01T05:57:28;1.40;58.70
66140;DHT22;52945;51.908;8.364;2023-03-01T06:00:30;1.40;58.70
66140;DHT22;52945;51.908;8.364;2023-03-01T06:03:31;1.30;59.00
66140;DHT22;52945;51.908;8.364;2023-03-01T06:06:35;1.30;59.00
66140;DHT22;52945;51.908;8.364;2023-03-01T06:09:37;1.30;59.00
66140;DHT22;52945;51.908;8.364;2023-03-01T06:12:39;1.30;58.90
66140;DHT22;52945;51.908;8.364;2023-03-01T06:15:40;1.20;58.90
66140;DHT22;52945;51.908;8.364;2023-03-01T06:18:40;1.20;59.00
66140;DHT22;52945;51.908;8.364;2023-03-01T06:21:41;1.20;59.10
66140;DHT22;52945;51.908;8.364;2023-03-01T06:24:42;1.20;59.10
66140;DHT22;52945;51.908;8.364;2023-03-01T06:27:43;1.20;59.10
66140;DHT22;52945;51.908;8.364;2023-03-01T06:30:46;1.20;59.10
66140;DHT22;52945;51.908;8.364;2023-03-01T06:33:47;1.10;59.20
66140;DHT22;52945;51.908;8.364;2023-03-01T06:36:48;1.20;59.30
66140;DHT22;52945;51.908;8.364;2023-03-01T06:39:48;1.20;59.40
66140;DHT22;52945;51.908;8.364;2023-03-01T06:42:50;1.20;59.80
66140;DHT22;52945;51.908;8.364;2023-03-01T06:45:51;1.10;59.80
66140;DHT22;52945;51.908;8.364;2023-03-01T06:48:51;1.10;59.90
66140;DHT22;52945;51.908;8.364;2023-03-01T06:51:52;1.10;60.00
66140;DHT22;52945;51.908;8.364;2023-03-01T06:54:53;1.20;60.00
66140;DHT22;52945;51.908;8.364;2023-03-01T06:57:57;1.10;60.00
66140;DHT22;52945;51.908;8.364;2023-03-01T07:00:58;1.20;60.10
66140;DHT22;52945;51.908;8.364;2023-03-01T07:03:59;1.10;60.30
66140;DHT22;52945;51.908;8.364;2023-03-01T07:06:59;1.20;60.20
66140;DHT22;52945;51.908;8.364;2023-03-01T07:10:00;1.20;60.30
66140;DHT22;52945;51.908;8.364;2023-03-01T07:13:01;1.20;60.30
66140;DHT22;52945;51.908;8.364;2023-03-01T07:16:01;1.20;60.30
66140;DHT22;52945;51.908;8.364;2023-03-01T07:19:02;1.20;60.40
66140;DHT22;52945;51.908;8.364;2023-03-01T07:22:03;1.20;60.20
66140;DHT22;52945;51.908;8.364;2023-03-01T07:25:04;1.30;60.40
66140;DHT22;52945;51.908;8.364;2023-03-01T07:28:05;1.30;60.50
66140;DHT22;52945;51.908;8.364;2023-03-01T07:31:06;1.40;60.50
66140;DHT22;52945;51.908;8.364;2023-03-01T07:34:06;1.30;60.40
66140;DHT22;52945;51.908;8.364;2023-03-01T07:37:07;1.40;60.40
66140;DHT22;52945;51.908;8.364;2023-03-01T07:40:08;1.40;60.50
66140;DHT22;52945;51.908;8.364;2023-03-01T07:43:09;1.50;60.70
66140;DHT22;52945;51.908;8.364;2023-03-01T07:46:10;1.50;60.70
66140;DHT22;52945;51.908;8.364;2023-03-01T07:49:10;1.50;60.60
66140;DHT22;52945;51.908;8.364;2023-03-01T07:52:11;1.60;60.90
66140;DHT22;52945;51.908;8.364;2023-03-01T07:55:12;1.60;61.10
66140;DHT22;52945;51.908;8.364;2023-03-01T07:58:12;1.60;61.10
66140;DHT22;52945;51.908;8.364;2023-03-01T08:01:18;1.60;61.00
66140;DHT22;52945;51.908;8.364;2023-03-01T08:04:19;1.70;61.20
66140;DHT22;52945;51.908;8.364;2023-03-01T08:07:19;1.80;60.90
66140;DHT22;52945;51.908;8.364;2023-03-01T08:10:20;1.90;61.00
66140;DHT22;52945;51.908;8.364;2023-03-01T08:13:21;2.00;61.00
66140;DHT22;52945;51.908;8.364;2023-03-01T08:16:23;2.00;60.80
66140;DHT22;52945;51.908;8.364;2023-03-01T08:19:23;2.10;60.90
66140;DHT22;52945;51.908;8.364;2023-03-01T08:22:24;2.20;60.70
66140;DHT22;52945;51.908;8.364;2023-03-01T08:25:25;2.30;60.10
66140;DHT22;52945;51.908;8.364;2023-03-01T08:28:25;2.40;60.00
66140;DHT22;52945;51.908;8.364;2023-03-01T08:34:28;2.70;59.10
66140;DHT22;52945;51.908;8.364;2023-03-01T08:37:28;3.00;58.70
66140;DHT22;52945;51.908;8.364;2023-03-01T08:40:31;3.20;58.10
66140;DHT22;52945;51.908;8.364;2023-03-01T08:43:32;3.50;57.00
66140;DHT22;52945;51.908;8.364;2023-03-01T08:46:36;3.70;56.10
66140;DHT22;52945;51.908;8.364;2023-03-01T08:49:37;4.30;54.20
66140;DHT22;52945;51.908;8.364;2023-03-01T08:52:38;4.70;53.20
66140;DHT22;52945;51.908;8.364;2023-03-01T08:55:38;4.90;52.40
66140;DHT22;52945;51.908;8.364;2023-03-01T08:58:39;5.30;50.10
66140;DHT22;52945;51.908;8.364;2023-03-01T09:01:40;5.80;48.90
66140;DHT22;52945;51.908;8.364;2023-03-01T09:04:43;6.10;47.60
66140;DHT22;52945;51.908;8.364;2023-03-01T09:07:44;6.40;47.10
66140;DHT22;52945;51.908;8.364;2023-03-01T09:10:45;6.70;46.00
66140;DHT22;52945;51.908;8.364;2023-03-01T09:13:47;6.80;46.20
66140;DHT22;52945;51.908;8.364;2023-03-01T09:16:48;7.00;46.00
66140;DHT22;52945;51.908;8.364;2023-03-01T09:19:49;7.10;46.00
66140;DHT22;52945;51.908;8.364;2023-03-01T09:22:49;7.20;45.50
66140;DHT22;52945;51.908;8.364;2023-03-01T09:25:50;7.30;44.40
66140;DHT22;52945;51.908;8.364;2023-03-01T09:28:53;7.40;44.40
66140;DHT22;52945;51.908;8.364;2023-03-01T09:31:54;7.60;43.90
66140;DHT22;52945;51.908;8.364;2023-03-01T09:34:55;7.90;42.60
66140;DHT22;52945;51.908;8.364;2023-03-01T09:38:03;8.20;42.60
66140;DHT22;52945;51.908;8.364;2023-03-01T09:44:35;8.90;40.40
66140;DHT22;52945;51.908;8.364;2023-03-01T09:47:38;9.30;40.00
66140;DHT22;52945;51.908;8.364;2023-03-01T09:50:41;9.60;39.40
66140;DHT22;52945;51.908;8.364;2023-03-01T09:53:43;9.60;38.90
66140;DHT22;52945;51.908;8.364;2023-03-01T09:56:53;9.60;38.40
66140;DHT22;52945;51.908;8.364;2023-03-01T10:00:15;9.70;38.20
66140;DHT22;52945;51.908;8.364;2023-03-01T10:03:41;9.70;38.10
66140;DHT22;52945;51.908;8.364;2023-03-01T10:06:51;9.70;37.10
66140;DHT22;52945;51.908;8.364;2023-03-01T10:09:56;9.70;37.30
66140;DHT22;52945;51.908;8.364;2023-03-01T10:12:57;9.70;37.00
66140;DHT22;52945;51.908;8.364;2023-03-01T10:16:13;10.00;37.00
66140;DHT22;52945;51.908;8.364;2023-03-01T10:19:22;10.00;36.60
66140;DHT22;52945;51.908;8.364;2023-03-01T10:22:30;10.10;37.30
66140;DHT22;52945;51.908;8.364;2023-03-01T10:31:58;10.30;36.60
66140;DHT22;52945;51.908;8.364;2023-03-01T10:34:59;10.40;36.30
66140;DHT22;52945;51.908;8.364;2023-03-01T10:38:11;10.40;35.90
66140;DHT22;52945;51.908;8.364;2023-03-01T10:41:11;10.40;36.10
66140;DHT22;52945;51.908;8.364;2023-03-01T10:47:35;10.20;36.60
66140;DHT22;52945;51.908;8.364;2023-03-01T10:50:36;10.20;36.50
66140;DHT22;52945;51.908;8.364;2023-03-01T10:53:47;10.40;36.40
66140;DHT22;52945;51.908;8.364;2023-03-01T10:56:53;10.40;36.00
66140;DHT22;52945;51.908;8.364;2023-03-01T11:03:22;10.10;36.40
66140;DHT22;52945;51.908;8.364;2023-03-01T11:06:24;10.20;37.00
66140;DHT22;52945;51.908;8.364;2023-03-01T11:09:31;10.20;36.80
66140;DHT22;52945;51.908;8.364;2023-03-01T11:12:37;10.30;36.50
66140;DHT22;52945;51.908;8.364;2023-03-01T11:15:38;10.20;36.40
66140;DHT22;52945;51.908;8.364;2023-03-01T11:18:39;10.40;36.30
66140;DHT22;52945;51.908;8.364;2023-03-01T11:24:54;10.60;36.80
66140;DHT22;52945;51.908;8.364;2023-03-01T11:27:56;10.60;36.30
66140;DHT22;52945;51.908;8.364;2023-03-01T11:31:08;10.60;36.00
66140;DHT22;52945;51.908;8.364;2023-03-01T11:34:16;10.70;36.10
66140;DHT22;52945;51.908;8.364;2023-03-01T11:41:17;10.80;36.20
66140;DHT22;52945;51.908;8.364;2023-03-01T11:44:25;10.90;35.00
66140;DHT22;52945;51.908;8.364;2023-03-01T11:50:48;11.00;35.20
66140;DHT22;52945;51.908;8.364;2023-03-01T11:54:12;10.90;35.00
66140;DHT22;52945;51.908;8.364;2023-03-01T12:11:23;11.70;33.30
66140;DHT22;52945;51.908;8.364;2023-03-01T12:22:41;12.10;31.80
66140;DHT22;52945;51.908;8.364;2023-03-01T12:28:35;12.30;31.40
66140;DHT22;52945;51.908;8.364;2023-03-01T12:31:50;12.40;31.50
66140;DHT22;52945;51.908;8.364;2023-03-01T12:41:35;12.50;32.00
66140;DHT22;52945;51.908;8.364;2023-03-01T12:44:51;12.60;31.20
66140;DHT22;52945;51.908;8.364;2023-03-01T12:51:29;12.80;31.10
66140;DHT22;52945;51.908;8.364;2023-03-01T12:54:33;12.90;31.60
66140;DHT22;52945;51.908;8.364;2023-03-01T12:57:48;12.80;31.30
66140;DHT22;52945;51.908;8.364;2023-03-01T13:10:48;12.80;31.00
66140;DHT22;52945;51.908;8.364;2023-03-01T13:13:49;12.90;30.70
66140;DHT22;52945;51.908;8.364;2023-03-01T13:16:52;12.90;29.00
66140;DHT22;52945;51.908;8.364;2023-03-01T13:19:57;12.90;29.80
66140;DHT22;52945;51.908;8.364;2023-03-01T13:26:21;12.70;29.40
66140;DHT22;52945;51.908;8.364;2023-03-01T13:29:27;12.80;30.00
66140;DHT22;52945;51.908;8.364;2023-03-01T13:32:36;12.80;30.20
66140;DHT22;52945;51.908;8.364;2023-03-01T13:35:44;12.90;30.10
66140;DHT22;52945;51.908;8.364;2023-03-01T13:41:55;12.90;29.50
66140;DHT22;52945;51.908;8.364;2023-03-01T13:44:57;12.90;29.30
66140;DHT22;52945;51.908;8.364;2023-03-01T13:48:03;12.90;29.10
66140;DHT22;52945;51.908;8.364;2023-03-01T13:51:08;13.00;29.80
66140;DHT22;52945;51.908;8.364;2023-03-01T13:54:11;13.00;29.50
66140;DHT22;52945;51.908;8.364;2023-03-01T13:57:22;12.90;28.60
66140;DHT22;52945;51.908;8.364;2023-03-01T14:00:39;13.00;28.60
66140;DHT22;52945;51.908;8.364;2023-03-01T14:03:42;12.90;27.30
66140;DHT22;52945;51.908;8.364;2023-03-01T14:06:43;12.90;28.40
66140;DHT22;52945;51.908;8.364;2023-03-01T14:09:47;12.70;26.90
66140;DHT22;52945;51.908;8.364;2023-03-01T14:12:58;12.80;28.50
66140;DHT22;52945;51.908;8.364;2023-03-01T14:19:40;13.00;28.00
66140;DHT22;52945;51.908;8.364;2023-03-01T14:22:44;13.00;27.60
66140;DHT22;52945;51.908;8.364;2023-03-01T14:25:54;13.10;27.80
66140;DHT22;52945;51.908;8.364;2023-03-01T14:28:55;13.20;26.30
66140;DHT22;52945;51.908;8.364;2023-03-01T14:32:12;13.10;26.40
66140;DHT22;52945;51.908;8.364;2023-03-01T14:35:25;13.00;26.30
66140;DHT22;52945;51.908;8.364;2023-03-01T14:38:39;13.00;26.20
66140;DHT22;52945;51.908;8.364;2023-03-01T14:41:40;13.10;26.20
66140;DHT22;52945;51.908;8.364;2023-03-01T14:44:47;13.10;26.20
66140;DHT22;52945;51.908;8.364;2023-03-01T14:47:48;13.00;26.30
66140;DHT22;52945;51.908;8.364;2023-03-01T14:50:49;13.10;26.50
66140;DHT22;52945;51.908;8.364;2023-03-01T14:53:51;13.10;26.10
66140;DHT22;52945;51.908;8.364;2023-03-01T14:56:53;13.00;26.10
66140;DHT22;52945;51.908;8.364;2023-03-01T15:00:05;13.00;26.30
66140;DHT22;52945;51.908;8.364;2023-03-01T15:03:24;13.00;26.70
66140;DHT22;52945;51.908;8.364;2023-03-01T15:06:25;13.10;27.10
66140;DHT22;52945;51.908;8.364;2023-03-01T15:09:26;13.00;27.00
66140;DHT22;52945;51.908;8.364;2023-03-01T15:16:04;13.00;27.00
66140;DHT22;52945;51.908;8.364;2023-03-01T15:19:07;13.00;27.70
66140;DHT22;52945;51.908;8.364;2023-03-01T15:22:17;13.00;27.20
66140;DHT22;52945;51.908;8.364;2023-03-01T15:25:27;13.00;27.80
66140;DHT22;52945;51.908;8.364;2023-03-01T15:28:34;12.90;27.70
66140;DHT22;52945;51.908;8.364;2023-03-01T15:31:37;12.90;28.00
66140;DHT22;52945;51.908;8.364;2023-03-01T15:34:39;13.10;28.80
66140;DHT22;52945;51.908;8.364;2023-03-01T15:37:47;13.10;28.50
66140;DHT22;52945;51.908;8.364;2023-03-01T15:40:49;13.10;28.60
66140;DHT22;52945;51.908;8.364;2023-03-01T15:43:50;13.20;28.70
66140;DHT22;52945;51.908;8.364;2023-03-01T15:46:54;13.30;28.90
66140;DHT22;52945;51.908;8.364;2023-03-01T15:49:55;13.20;28.80
66140;DHT22;52945;51.908;8.364;2023-03-01T15:52:58;13.20;28.30
66140;DHT22;52945;51.908;8.364;2023-03-01T15:55:59;13.20;28.30
66140;DHT22;52945;51.908;8.364;2023-03-01T15:59:01;13.10;28.40
66140;DHT22;52945;51.908;8.364;2023-03-01T16:02:09;13.10;28.50
66140;DHT22;52945;51.908;8.364;2023-03-01T16:05:24;13.00;28.90
66140;DHT22;52945;51.908;8.364;2023-03-01T16:08:26;12.80;29.40
66140;DHT22;52945;51.908;8.364;2023-03-01T16:11:26;12.80;29.10
66140;DHT22;52945;51.908;8.364;2023-03-01T16:14:27;12.80;29.50
66140;DHT22;52945;51.908;8.364;2023-03-01T16:17:28;12.70;29.70
66140;DHT22;52945;51.908;8.364;2023-03-01T16:20:29;12.70;29.80
66140;DHT22;52945;51.908;8.364;2023-03-01T16:23:30;12.60;30.30
66140;DHT22;52945;51.908;8.364;2023-03-01T16:26:30;12.40;30.40
66140;DHT22;52945;51.908;8.364;2023-03-01T16:29:31;12.20;30.70
66140;DHT22;52945;51.908;8.364;2023-03-01T16:32:32;12.00;31.10
66140;DHT22;52945;51.908;8.364;2023-03-01T16:35:33;11.70;31.50
66140;DHT22;52945;51.908;8.364;2023-03-01T16:38:34;11.60;32.00
66140;DHT22;52945;51.908;8.364;2023-03-01T16:41:35;11.40;32.70
66140;DHT22;52945;51.908;8.364;2023-03-01T16:44:35;11.20;32.60
66140;DHT22;52945;51.908;8.364;2023-03-01T16:47:36;11.00;32.90
66140;DHT22;52945;51.908;8.364;2023-03-01T16:50:37;11.00;33.30
66140;DHT22;52945;51.908;8.364;2023-03-01T16:53:38;10.80;33.70
66140;DHT22;52945;51.908;8.364;2023-03-01T16:56:38;10.70;34.00
66140;DHT22;52945;51.908;8.364;2023-03-01T16:59:40;10.60;34.40
66140;DHT22;52945;51.908;8.364;2023-03-01T17:02:41;10.40;34.70
66140;DHT22;52945;51.908;8.364;2023-03-01T17:05:42;10.40;35.40
66140;DHT22;52945;51.908;8.364;2023-03-01T17:08:43;10.40;35.50
66140;DHT22;52945;51.908;8.364;2023-03-01T17:12:12;9.90;35.80
66140;DHT22;52945;51.908;8.364;2023-03-01T17:15:13;10.20;35.90
66140;DHT22;52945;51.908;8.364;2023-03-01T17:18:13;10.10;36.30
66140;DHT22;52945;51.908;8.364;2023-03-01T17:21:14;10.00;36.20
66140;DHT22;52945;51.908;8.364;2023-03-01T17:24:15;9.90;36.40
66140;DHT22;52945;51.908;8.364;2023-03-01T17:27:15;9.70;36.70
66140;DHT22;52945;51.908;8.364;2023-03-01T17:30:17;9.60;37.20
66140;DHT22;52945;51.908;8.364;2023-03-01T17:33:18;9.50;37.40
66140;DHT22;52945;51.908;8.364;2023-03-01T17:36:19;9.40;37.20
66140;DHT22;52945;51.908;8.364;2023-03-01T17:39:19;9.30;37.80
66140;DHT22;52945;51.908;8.364;2023-03-01T17:42:25;9.20;37.70
66140;DHT22;52945;51.908;8.364;2023-03-01T17:45:25;9.20;38.10
66140;DHT22;52945;51.908;8.364;2023-03-01T17:48:26;9.10;38.40
66140;DHT22;52945;51.908;8.364;2023-03-01T17:51:26;9.00;38.70
66140;DHT22;52945;51.908;8.364;2023-03-01T17:54:27;8.90;38.70
66140;DHT22;52945;51.908;8.364;2023-03-01T17:57:27;8.80;39.10
66140;DHT22;52945;51.908;8.364;2023-03-01T18:00:29;8.70;39.30
66140;DHT22;52945;51.908;8.364;2023-03-01T18:03:30;8.70;39.40
66140;DHT22;52945;51.908;8.364;2023-03-01T18:06:30;8.60;40.00
66140;DHT22;52945;51.908;8.364;2023-03-01T18:09:31;8.50;40.10
66140;DHT22;52945;51.908;8.364;2023-03-01T18:12:31;8.50;40.60
66140;DHT22;52945;51.908;8.364;2023-03-01T18:15:33;8.50;40.80
66140;DHT22;52945;51.908;8.364;2023-03-01T18:18:34;8.40;40.70
66140;DHT22;52945;51.908;8.364;2023-03-01T18:21:34;8.50;41.30
66140;DHT22;52945;51.908;8.364;2023-03-01T18:24:39;8.40;40.90
66140;DHT22;52945;51.908;8.364;2023-03-01T18:27:39;8.40;41.10
66140;DHT22;52945;51.908;8.364;2023-03-01T18:30:40;8.40;41.30
66140;DHT22;52945;51.908;8.364;2023-03-01T18:33:40;8.30;41.40
66140;DHT22;52945;51.908;8.364;2023-03-01T18:36:41;8.30;41.40
66140;DHT22;52945;51.908;8.364;2023-03-01T18:39:41;8.20;41.50
66140;DHT22;52945;51.908;8.364;2023-03-01T18:42:42;8.20;41.60
66140;DHT22;52945;51.908;8.364;2023-03-01T18:45:43;8.20;41.50
66140;DHT22;52945;51.908;8.364;2023-03-01T18:48:45;8.20;41.80
66140;DHT22;52945;51.908;8.364;2023-03-01T18:51:46;8.10;41.90
66140;DHT22;52945;51.908;8.364;2023-03-01T18:54:46;8.10;41.80
66140;DHT22;52945;51.908;8.364;2023-03-01T18:57:47;8.00;41.90
66140;DHT22;52945;51.908;8.364;2023-03-01T19:00:47;8.00;41.90
66140;DHT22;52945;51.908;8.364;2023-03-01T19:03:48;7.90;41.90
66140;DHT22;52945;51.908;8.364;2023-03-01T19:06:49;7.90;42.20
66140;DHT22;52945;51.908;8.364;2023-03-01T19:09:49;7.80;42.20
66140;DHT22;52945;51.908;8.364;2023-03-01T19:12:51;7.70;42.10
66140;DHT22;52945;51.908;8.364;2023-03-01T19:15:52;7.70;42.40
66140;DHT22;52945;51.908;8.364;2023-03-01T19:19:03;7.60;42.60
66140;DHT22;52945;51.908;8.364;2023-03-01T19:22:04;7.50;42.50
66140;DHT22;52945;51.908;8.364;2023-03-01T19:25:06;7.50;42.60
66140;DHT22;52945;51.908;8.364;2023-03-01T19:28:06;7.50;42.80
66140;DHT22;52945;51.908;8.364;2023-03-01T19:31:10;7.40;42.70
66140;DHT22;52945;51.908;8.364;2023-03-01T19:34:11;7.30;42.80
66140;DHT22;52945;51.908;8.364;2023-03-01T19:37:12;7.30;43.20
66140;DHT22;52945;51.908;8.364;2023-03-01T19:40:25;7.20;42.90
66140;DHT22;52945;51.908;8.364;2023-03-01T19:47:25;7.10;43.30
66140;DHT22;52945;51.908;8.364;2023-03-01T19:50:25;7.00;43.60
66140;DHT22;52945;51.908;8.364;2023-03-01T19:53:26;7.00;44.10
66140;DHT22;52945;51.908;8.364;2023-03-01T19:56:27;7.00;44.00
66140;DHT22;52945;51.908;8.364;2023-03-01T19:59:27;7.00;44.10
66140;DHT22;52945;51.908;8.364;2023-03-01T20:02:28;7.00;44.10
66140;DHT22;52945;51.908;8.364;2023-03-01T20:05:35;6.90;44.20
66140;DHT22;52945;51.908;8.364;2023-03-01T20:08:36;6.90;44.50
66140;DHT22;52945;51.908;8.364;2023-03-01T20:11:37;6.90;44.50
66140;DHT22;52945;51.908;8.364;2023-03-01T20:14:38;6.80;44.80
66140;DHT22;52945;51.908;8.364;2023-03-01T20:17:38;6.80;44.80
66140;DHT22;52945;51.908;8.364;2023-03-01T20:20:39;6.80;44.80
66140;DHT22;52945;51.908;8.364;2023-03-01T20:23:40;6.70;44.70
66140;DHT22;52945;51.908;8.364;2023-03-01T20:26:40;6.70;44.90
66140;DHT22;52945;51.908;8.364;2023-03-01T20:29:41;6.80;45.20
66140;DHT22;52945;51.908;8.364;2023-03-01T20:32:42;6.70;45.40
66140;DHT22;52945;51.908;8.364;2023-03-01T20:35:42;6.60;45.40
66140;DHT22;52945;51.908;8.364;2023-03-01T20:38:43;6.60;45.60
66140;DHT22;52945;51.908;8.364;2023-03-01T20:41:45;6.60;45.80
66140;DHT22;52945;51.908;8.364;2023-03-01T20:44:46;6.60;45.70
66140;DHT22;52945;51.908;8.364;2023-03-01T20:47:48;6.60;45.90
66140;DHT22;52945;51.908;8.364;2023-03-01T20:50:49;6.50;46.00
66140;DHT22;52945;51.908;8.364;2023-03-01T20:53:50;6.40;46.10
66140;DHT22;52945;51.908;8.364;2023-03-01T20:56:51;6.50;46.40
66140;DHT22;52945;51.908;8.364;2023-03-01T20:59:52;6.40;46.50
66140;DHT22;52945;51.908;8.364;2023-03-01T21:02:53;6.40;46.70
66140;DHT22;52945;51.908;8.364;2023-03-01T21:05:57;6.40;46.50
66140;DHT22;52945;51.908;8.364;2023-03-01T21:08:58;6.30;46.70